sensor_id;sensor_type;location;lat;lon;timestamp;P1;durP1;ratioP1;P2;durP2;ratioP2
14554;SDS011;7364;50.870;4.722;2022-11-15T00:01:14;21.43;;;16.93;;
14554;SDS011;7364;50.870;4.722;2022-11-15T00:03:44;22.27;;;17.20;;
14554;SDS011;7364;50.870;4.722;2022-11-15T00:06:11;22.53;;;17.77;;
14554;SDS011;7364;50.870;4.722;2022-11-15T00:08:38;27.10;;;18.57;;
14554;SDS011;7364;50.870;4.722;2022-11-15T00:11:06;26.50;;;18.53;;
14554;SDS011;7364;50.870;4.722;2022-11-15T00:13:33;22.87;;;18.43;;
14554;SDS011;7364;50.870;4.722;2022-11-15T00:16:02;22.07;;;17.57;;
14554;SDS011;7364;50.870;4.722;2022-11-15T00:18:30;22.87;;;18.60;;
14554;SDS011;7364;50.870;4.722;2022-11-15T00:21:11;23.40;;;18.13;;
14554;SDS011;7364;50.870;4.722;2022-11-15T00:23:40;24.13;;;17.83;;
14554;SDS011;7364;50.870;4.722;2022-11-15T00:26:08;23.17;;;18.10;;
14554;SDS011;7364;50.870;4.722;2022-11-15T00:28:39;26.00;;;18.87;;
14554;SDS011;7364;50.870;4.722;2022-11-15T00:31:11;21.60;;;17.17;;
14554;SDS011;7364;50.870;4.722;2022-11-15T00:33:40;22.77;;;18.03;;
14554;SDS011;7364;50.870;4.722;2022-11-15T00:36:10;21.27;;;18.27;;
14554;SDS011;7364;50.870;4.722;2022-11-15T00:38:37;22.23;;;17.57;;
14554;SDS011;7364;50.870;4.722;2022-11-15T00:41:06;21.50;;;16.50;;
14554;SDS011;7364;50.870;4.722;2022-11-15T00:43:34;20.73;;;17.97;;
14554;SDS011;7364;50.870;4.722;2022-11-15T00:46:02;20.77;;;18.47;;
14554;SDS011;7364;50.870;4.722;2022-11-15T00:48:31;22.67;;;18.47;;
14554;SDS011;7364;50.870;4.722;2022-11-15T00:50:58;24.53;;;18.80;;
14554;SDS011;7364;50.870;4.722;2022-11-15T00:53:36;24.57;;;17.77;;
14554;SDS011;7364;50.870;4.722;2022-11-15T01:00:04;20.37;;;17.80;;
14554;SDS011;7364;50.870;4.722;2022-11-15T01:02:32;23.23;;;17.93;;
14554;SDS011;7364;50.870;4.722;2022-11-15T01:05:02;22.23;;;17.83;;
14554;SDS011;7364;50.870;4.722;2022-11-15T01:07:30;24.60;;;18.47;;
14554;SDS011;7364;50.870;4.722;2022-11-15T01:09:57;26.27;;;18.80;;
14554;SDS011;7364;50.870;4.722;2022-11-15T01:12:24;23.30;;;18.37;;
14554;SDS011;7364;50.870;4.722;2022-11-15T01:14:52;26.50;;;18.40;;
14554;SDS011;7364;50.870;4.722;2022-11-15T01:17:19;21.03;;;17.67;;
14554;SDS011;7364;50.870;4.722;2022-11-15T01:19:46;22.20;;;17.90;;
14554;SDS011;7364;50.870;4.722;2022-11-15T01:22:15;26.47;;;18.47;;
14554;SDS011;7364;50.870;4.722;2022-11-15T01:24:43;23.97;;;18.77;;
14554;SDS011;7364;50.870;4.722;2022-11-15T01:27:10;24.73;;;18.30;;
14554;SDS011;7364;50.870;4.722;2022-11-15T01:29:37;25.37;;;19.30;;
14554;SDS011;7364;50.870;4.722;2022-11-15T01:32:04;24.10;;;18.97;;
14554;SDS011;7364;50.870;4.722;2022-11-15T01:34:31;24.77;;;19.07;;
14554;SDS011;7364;50.870;4.722;2022-11-15T01:36:58;22.93;;;17.70;;
14554;SDS011;7364;50.870;4.722;2022-11-15T01:39:27;28.13;;;20.37;;
14554;SDS011;7364;50.870;4.722;2022-11-15T01:41:54;28.47;;;17.50;;
14554;SDS011;7364;50.870;4.722;2022-11-15T01:47:10;23.37;;;20.40;;
14554;SDS011;7364;50.870;4.722;2022-11-15T01:49:47;25.53;;;20.23;;
14554;SDS011;7364;50.870;4.722;2022-11-15T01:52:20;29.70;;;21.47;;
14554;SDS011;7364;50.870;4.722;2022-11-15T01:54:52;24.60;;;21.83;;
14554;SDS011;7364;50.870;4.722;2022-11-15T01:57:22;24.47;;;20.67;;
14554;SDS011;7364;50.870;4.722;2022-11-15T01:59:50;27.03;;;19.47;;
14554;SDS011;7364;50.870;4.722;2022-11-15T02:02:17;24.20;;;20.50;;
14554;SDS011;7364;50.870;4.722;2022-11-15T02:04:45;23.63;;;19.43;;
14554;SDS011;7364;50.870;4.722;2022-11-15T02:07:14;25.87;;;20.97;;
14554;SDS011;7364;50.870;4.722;2022-11-15T02:09:44;27.33;;;20.33;;
14554;SDS011;7364;50.870;4.722;2022-11-15T02:12:14;28.17;;;20.87;;
14554;SDS011;7364;50.870;4.722;2022-11-15T02:14:50;22.73;;;19.00;;
14554;SDS011;7364;50.870;4.722;2022-11-15T02:17:31;26.83;;;19.53;;
14554;SDS011;7364;50.870;4.722;2022-11-15T02:23:09;22.73;;;19.17;;
14554;SDS011;7364;50.870;4.722;2022-11-15T02:26:06;22.00;;;17.67;;
14554;SDS011;7364;50.870;4.722;2022-11-15T02:28:55;21.57;;;17.70;;
14554;SDS011;7364;50.870;4.722;2022-11-15T02:31:29;22.73;;;15.80;;
14554;SDS011;7364;50.870;4.722;2022-11-15T02:34:04;24.23;;;18.10;;
14554;SDS011;7364;50.870;4.722;2022-11-15T02:36:37;21.10;;;17.30;;
14554;SDS011;7364;50.870;4.722;2022-11-15T02:39:10;21.57;;;17.53;;
14554;SDS011;7364;50.870;4.722;2022-11-15T02:41:46;20.77;;;18.57;;
14554;SDS011;7364;50.870;4.722;2022-11-15T02:44:20;21.53;;;16.83;;
14554;SDS011;7364;50.870;4.722;2022-11-15T02:46:51;24.40;;;18.13;;
14554;SDS011;7364;50.870;4.722;2022-11-15T02:49:38;22.77;;;17.27;;
14554;SDS011;7364;50.870;4.722;2022-11-15T02:52:08;23.43;;;18.47;;
14554;SDS011;7364;50.870;4.722;2022-11-15T02:54:35;23.23;;;18.30;;
14554;SDS011;7364;50.870;4.722;2022-11-15T02:57:03;22.03;;;17.87;;
14554;SDS011;7364;50.870;4.722;2022-11-15T03:02:31;23.40;;;19.03;;
14554;SDS011;7364;50.870;4.722;2022-11-15T03:05:23;20.73;;;16.73;;
14554;SDS011;7364;50.870;4.722;2022-11-15T03:07:59;27.63;;;19.07;;
14554;SDS011;7364;50.870;4.722;2022-11-15T03:10:32;18.77;;;16.77;;
14554;SDS011;7364;50.870;4.722;2022-11-15T03:13:07;21.37;;;17.77;;
14554;SDS011;7364;50.870;4.722;2022-11-15T03:15:43;26.73;;;18.90;;
14554;SDS011;7364;50.870;4.722;2022-11-15T03:18:19;20.73;;;18.27;;
14554;SDS011;7364;50.870;4.722;2022-11-15T03:20:50;22.90;;;19.40;;
14554;SDS011;7364;50.870;4.722;2022-11-15T03:23:18;22.70;;;19.27;;
14554;SDS011;7364;50.870;4.722;2022-11-15T03:25:48;25.97;;;20.27;;
14554;SDS011;7364;50.870;4.722;2022-11-15T03:28:20;26.47;;;20.70;;
14554;SDS011;7364;50.870;4.722;2022-11-15T03:30:51;25.40;;;19.43;;
14554;SDS011;7364;50.870;4.722;2022-11-15T03:33:21;25.53;;;19.60;;
14554;SDS011;7364;50.870;4.722;2022-11-15T03:35:50;21.87;;;18.60;;
14554;SDS011;7364;50.870;4.722;2022-11-15T03:38:19;28.43;;;20.03;;
14554;SDS011;7364;50.870;4.722;2022-11-15T03:40:57;26.13;;;19.00;;
14554;SDS011;7364;50.870;4.722;2022-11-15T03:43:29;19.67;;;17.40;;
14554;SDS011;7364;50.870;4.722;2022-11-15T03:46:02;20.63;;;18.40;;
14554;SDS011;7364;50.870;4.722;2022-11-15T03:48:43;23.67;;;18.67;;
14554;SDS011;7364;50.870;4.722;2022-11-15T03:51:16;23.73;;;17.50;;
14554;SDS011;7364;50.870;4.722;2022-11-15T03:53:45;20.37;;;16.40;;
14554;SDS011;7364;50.870;4.722;2022-11-15T03:56:12;19.77;;;15.93;;
14554;SDS011;7364;50.870;4.722;2022-11-15T03:58:39;20.73;;;15.20;;
14554;SDS011;7364;50.870;4.722;2022-11-15T04:01:07;17.03;;;15.17;;
14554;SDS011;7364;50.870;4.722;2022-11-15T04:03:35;18.47;;;15.87;;
14554;SDS011;7364;50.870;4.722;2022-11-15T04:06:03;19.33;;;16.03;;
14554;SDS011;7364;50.870;4.722;2022-11-15T04:08:30;20.60;;;15.87;;
14554;SDS011;7364;50.870;4.722;2022-11-15T04:10:57;22.07;;;15.40;;
14554;SDS011;7364;50.870;4.722;2022-11-15T04:13:24;22.40;;;15.60;;
14554;SDS011;7364;50.870;4.722;2022-11-15T04:15:52;16.87;;;15.03;;
14554;SDS011;7364;50.870;4.722;2022-11-15T04:18:19;19.13;;;14.60;;
14554;SDS011;7364;50.870;4.722;2022-11-15T04:20:48;17.50;;;13.77;;
14554;SDS011;7364;50.870;4.722;2022-11-15T04:23:33;15.70;;;13.33;;
14554;SDS011;7364;50.870;4.722;2022-11-15T04:26:26;16.90;;;13.60;;
14554;SDS011;7364;50.870;4.722;2022-11-15T04:28:53;16.23;;;14.00;;
14554;SDS011;7364;50.870;4.722;2022-11-15T04:31:37;19.33;;;14.43;;
14554;SDS011;7364;50.870;4.722;2022-11-15T04:34:04;18.30;;;14.10;;
14554;SDS011;7364;50.870;4.722;2022-11-15T04:36:33;18.83;;;14.37;;
14554;SDS011;7364;50.870;4.722;2022-11-15T04:39:17;18.90;;;14.50;;
14554;SDS011;7364;50.870;4.722;2022-11-15T04:41:45;19.27;;;13.53;;
14554;SDS011;7364;50.870;4.722;2022-11-15T04:44:13;16.40;;;12.73;;
14554;SDS011;7364;50.870;4.722;2022-11-15T04:46:41;14.00;;;11.80;;
14554;SDS011;7364;50.870;4.722;2022-11-15T04:49:08;15.93;;;13.03;;
14554;SDS011;7364;50.870;4.722;2022-11-15T04:51:37;15.10;;;11.67;;
14554;SDS011;7364;50.870;4.722;2022-11-15T04:54:04;12.30;;;10.87;;
14554;SDS011;7364;50.870;4.722;2022-11-15T04:56:32;14.90;;;11.77;;
14554;SDS011;7364;50.870;4.722;2022-11-15T04:58:59;16.10;;;11.00;;
14554;SDS011;7364;50.870;4.722;2022-11-15T05:01:26;16.23;;;11.77;;
14554;SDS011;7364;50.870;4.722;2022-11-15T05:03:53;14.07;;;11.97;;
14554;SDS011;7364;50.870;4.722;2022-11-15T05:06:40;14.63;;;9.47;;
14554;SDS011;7364;50.870;4.722;2022-11-15T05:09:07;13.70;;;10.77;;
14554;SDS011;7364;50.870;4.722;2022-11-15T05:11:34;14.33;;;11.40;;
14554;SDS011;7364;50.870;4.722;2022-11-15T05:14:01;10.83;;;9.73;;
14554;SDS011;7364;50.870;4.722;2022-11-15T05:16:28;10.50;;;9.43;;
14554;SDS011;7364;50.870;4.722;2022-11-15T05:18:56;14.40;;;10.33;;
14554;SDS011;7364;50.870;4.722;2022-11-15T05:21:23;14.97;;;10.97;;
14554;SDS011;7364;50.870;4.722;2022-11-15T05:23:51;12.27;;;8.77;;
14554;SDS011;7364;50.870;4.722;2022-11-15T05:26:18;14.27;;;9.10;;
14554;SDS011;7364;50.870;4.722;2022-11-15T05:28:46;12.43;;;9.87;;
14554;SDS011;7364;50.870;4.722;2022-11-15T05:31:13;13.43;;;9.80;;
14554;SDS011;7364;50.870;4.722;2022-11-15T05:33:42;13.60;;;9.47;;
14554;SDS011;7364;50.870;4.722;2022-11-15T05:36:12;11.03;;;8.43;;
14554;SDS011;7364;50.870;4.722;2022-11-15T05:38:45;14.27;;;9.43;;
14554;SDS011;7364;50.870;4.722;2022-11-15T05:41:18;11.60;;;8.47;;
14554;SDS011;7364;50.870;4.722;2022-11-15T05:43:48;14.13;;;9.33;;
14554;SDS011;7364;50.870;4.722;2022-11-15T05:46:17;12.50;;;8.13;;
14554;SDS011;7364;50.870;4.722;2022-11-15T05:48:46;14.80;;;8.50;;
14554;SDS011;7364;50.870;4.722;2022-11-15T05:51:17;11.40;;;8.60;;
14554;SDS011;7364;50.870;4.722;2022-11-15T05:53:47;13.57;;;9.40;;
14554;SDS011;7364;50.870;4.722;2022-11-15T05:56:14;11.83;;;9.50;;
14554;SDS011;7364;50.870;4.722;2022-11-15T05:58:45;11.07;;;8.60;;
14554;SDS011;7364;50.870;4.722;2022-11-15T06:01:13;13.47;;;9.47;;
14554;SDS011;7364;50.870;4.722;2022-11-15T06:03:40;12.40;;;9.63;;
14554;SDS011;7364;50.870;4.722;2022-11-15T06:06:08;14.47;;;11.47;;
14554;SDS011;7364;50.870;4.722;2022-11-15T06:08:38;13.60;;;10.20;;
14554;SDS011;7364;50.870;4.722;2022-11-15T06:11:05;14.77;;;11.23;;
14554;SDS011;7364;50.870;4.722;2022-11-15T06:13:32;13.20;;;10.83;;
14554;SDS011;7364;50.870;4.722;2022-11-15T06:16:02;15.53;;;10.87;;
14554;SDS011;7364;50.870;4.722;2022-11-15T06:18:31;13.10;;;9.03;;
14554;SDS011;7364;50.870;4.722;2022-11-15T06:20:59;11.30;;;8.70;;
14554;SDS011;7364;50.870;4.722;2022-11-15T06:23:27;13.33;;;9.53;;
14554;SDS011;7364;50.870;4.722;2022-11-15T06:25:57;12.83;;;9.30;;
14554;SDS011;7364;50.870;4.722;2022-11-15T06:28:27;13.27;;;10.00;;
14554;SDS011;7364;50.870;4.722;2022-11-15T06:30:55;13.20;;;9.97;;
14554;SDS011;7364;50.870;4.722;2022-11-15T06:33:29;16.53;;;10.33;;
14554;SDS011;7364;50.870;4.722;2022-11-15T06:35:59;12.77;;;9.67;;
14554;SDS011;7364;50.870;4.722;2022-11-15T06:38:27;13.73;;;9.73;;
14554;SDS011;7364;50.870;4.722;2022-11-15T06:40:54;13.07;;;9.53;;
14554;SDS011;7364;50.870;4.722;2022-11-15T06:43:27;15.37;;;9.47;;
14554;SDS011;7364;50.870;4.722;2022-11-15T06:45:54;15.20;;;10.70;;
14554;SDS011;7364;50.870;4.722;2022-11-15T06:48:21;13.40;;;11.40;;
14554;SDS011;7364;50.870;4.722;2022-11-15T06:50:51;18.07;;;11.27;;
14554;SDS011;7364;50.870;4.722;2022-11-15T06:53:19;14.73;;;10.60;;
14554;SDS011;7364;50.870;4.722;2022-11-15T06:55:46;13.43;;;9.67;;
14554;SDS011;7364;50.870;4.722;2022-11-15T06:58:13;13.87;;;10.67;;
14554;SDS011;7364;50.870;4.722;2022-11-15T07:00:41;13.87;;;8.67;;
14554;SDS011;7364;50.870;4.722;2022-11-15T07:03:09;12.93;;;10.03;;
14554;SDS011;7364;50.870;4.722;2022-11-15T07:05:37;13.77;;;9.93;;
14554;SDS011;7364;50.870;4.722;2022-11-15T07:08:05;16.87;;;10.03;;
14554;SDS011;7364;50.870;4.722;2022-11-15T07:10:32;15.07;;;9.80;;
14554;SDS011;7364;50.870;4.722;2022-11-15T07:13:01;18.43;;;12.60;;
14554;SDS011;7364;50.870;4.722;2022-11-15T07:15:28;15.23;;;9.90;;
14554;SDS011;7364;50.870;4.722;2022-11-15T07:17:55;17.17;;;10.90;;
14554;SDS011;7364;50.870;4.722;2022-11-15T07:20:26;17.07;;;10.93;;
14554;SDS011;7364;50.870;4.722;2022-11-15T07:22:59;10.60;;;8.20;;
14554;SDS011;7364;50.870;4.722;2022-11-15T07:25:29;10.63;;;7.60;;
14554;SDS011;7364;50.870;4.722;2022-11-15T07:27:56;10.20;;;7.43;;
14554;SDS011;7364;50.870;4.722;2022-11-15T07:30:25;8.43;;;6.30;;
14554;SDS011;7364;50.870;4.722;2022-11-15T07:32:53;16.20;;;6.97;;
14554;SDS011;7364;50.870;4.722;2022-11-15T07:35:21;11.70;;;7.07;;
14554;SDS011;7364;50.870;4.722;2022-11-15T07:37:55;12.83;;;7.50;;
14554;SDS011;7364;50.870;4.722;2022-11-15T07:40:24;8.03;;;6.67;;
14554;SDS011;7364;50.870;4.722;2022-11-15T07:42:53;11.23;;;7.50;;
14554;SDS011;7364;50.870;4.722;2022-11-15T07:45:27;10.83;;;6.90;;
14554;SDS011;7364;50.870;4.722;2022-11-15T07:47:55;10.50;;;6.00;;
14554;SDS011;7364;50.870;4.722;2022-11-15T07:50:23;8.03;;;5.67;;
14554;SDS011;7364;50.870;4.722;2022-11-15T07:52:54;13.13;;;5.67;;
14554;SDS011;7364;50.870;4.722;2022-11-15T07:55:26;7.50;;;5.53;;
14554;SDS011;7364;50.870;4.722;2022-11-15T07:58:01;9.30;;;6.13;;
14554;SDS011;7364;50.870;4.722;2022-11-15T08:00:29;9.13;;;5.67;;
14554;SDS011;7364;50.870;4.722;2022-11-15T08:03:03;12.00;;;6.57;;
14554;SDS011;7364;50.870;4.722;2022-11-15T08:05:31;7.33;;;5.17;;
14554;SDS011;7364;50.870;4.722;2022-11-15T08:07:58;9.57;;;5.00;;
14554;SDS011;7364;50.870;4.722;2022-11-15T08:10:25;9.03;;;5.33;;
14554;SDS011;7364;50.870;4.722;2022-11-15T08:12:57;10.43;;;4.57;;
14554;SDS011;7364;50.870;4.722;2022-11-15T08:15:26;7.20;;;4.77;;
14554;SDS011;7364;50.870;4.722;2022-11-15T08:17:54;5.47;;;3.60;;
14554;SDS011;7364;50.870;4.722;2022-11-15T08:20:22;5.30;;;3.77;;
14554;SDS011;7364;50.870;4.722;2022-11-15T08:22:50;6.30;;;3.53;;
14554;SDS011;7364;50.870;4.722;2022-11-15T08:25:18;6.53;;;3.43;;
14554;SDS011;7364;50.870;4.722;2022-11-15T08:27:45;6.27;;;3.00;;
14554;SDS011;7364;50.870;4.722;2022-11-15T08:30:12;4.20;;;2.63;;
14554;SDS011;7364;50.870;4.722;2022-11-15T08:32:42;3.87;;;2.47;;
14554;SDS011;7364;50.870;4.722;2022-11-15T08:35:09;6.87;;;2.27;;
14554;SDS011;7364;50.870;4.722;2022-11-15T08:37:37;7.10;;;2.53;;
14554;SDS011;7364;50.870;4.722;2022-11-15T08:40:05;3.87;;;2.20;;
14554;SDS011;7364;50.870;4.722;2022-11-15T08:42:33;4.80;;;2.40;;
14554;SDS011;7364;50.870;4.722;2022-11-15T08:45:00;4.10;;;2.17;;
14554;SDS011;7364;50.870;4.722;2022-11-15T08:47:27;5.03;;;2.10;;
14554;SDS011;7364;50.870;4.722;2022-11-15T08:49:56;7.30;;;2.37;;
14554;SDS011;7364;50.870;4.722;2022-11-15T08:52:24;4.40;;;1.97;;
14554;SDS011;7364;50.870;4.722;2022-11-15T08:54:55;9.97;;;2.13;;
14554;SDS011;7364;50.870;4.722;2022-11-15T08:57:22;5.80;;;2.27;;
14554;SDS011;7364;50.870;4.722;2022-11-15T08:59:49;4.83;;;2.50;;
14554;SDS011;7364;50.870;4.722;2022-11-15T09:02:17;7.10;;;2.17;;
14554;SDS011;7364;50.870;4.722;2022-11-15T09:04:45;3.90;;;2.00;;
14554;SDS011;7364;50.870;4.722;2022-11-15T09:07:13;4.10;;;2.03;;
14554;SDS011;7364;50.870;4.722;2022-11-15T09:09:41;4.47;;;2.00;;
14554;SDS011;7364;50.870;4.722;2022-11-15T09:12:08;3.30;;;1.77;;
14554;SDS011;7364;50.870;4.722;2022-11-15T09:14:35;4.63;;;1.87;;
14554;SDS011;7364;50.870;4.722;2022-11-15T09:17:02;2.63;;;1.60;;
14554;SDS011;7364;50.870;4.722;2022-11-15T09:19:30;6.37;;;2.10;;
14554;SDS011;7364;50.870;4.722;2022-11-15T09:21:57;6.60;;;1.70;;
14554;SDS011;7364;50.870;4.722;2022-11-15T09:24:26;5.10;;;1.83;;
14554;SDS011;7364;50.870;4.722;2022-11-15T09:26:53;3.93;;;1.93;;
14554;SDS011;7364;50.870;4.722;2022-11-15T09:29:20;5.20;;;2.00;;
14554;SDS011;7364;50.870;4.722;2022-11-15T09:31:47;4.10;;;1.83;;
14554;SDS011;7364;50.870;4.722;2022-11-15T09:34:18;4.70;;;1.60;;
14554;SDS011;7364;50.870;4.722;2022-11-15T09:36:47;4.90;;;1.40;;
14554;SDS011;7364;50.870;4.722;2022-11-15T09:39:14;5.20;;;1.70;;
14554;SDS011;7364;50.870;4.722;2022-11-15T09:44:45;4.57;;;1.80;;
14554;SDS011;7364;50.870;4.722;2022-11-15T09:47:36;5.77;;;1.80;;
14554;SDS011;7364;50.870;4.722;2022-11-15T09:50:31;2.30;;;1.10;;
14554;SDS011;7364;50.870;4.722;2022-11-15T09:53:02;7.20;;;1.57;;
14554;SDS011;7364;50.870;4.722;2022-11-15T09:55:32;3.73;;;1.37;;
14554;SDS011;7364;50.870;4.722;2022-11-15T09:58:07;4.40;;;1.90;;
14554;SDS011;7364;50.870;4.722;2022-11-15T10:00:44;6.27;;;1.90;;
14554;SDS011;7364;50.870;4.722;2022-11-15T10:03:19;10.03;;;2.00;;
14554;SDS011;7364;50.870;4.722;2022-11-15T10:05:53;4.10;;;1.30;;
14554;SDS011;7364;50.870;4.722;2022-11-15T10:08:30;4.27;;;1.23;;
14554;SDS011;7364;50.870;4.722;2022-11-15T10:11:17;6.83;;;1.83;;
14554;SDS011;7364;50.870;4.722;2022-11-15T10:13:47;4.43;;;1.83;;
14554;SDS011;7364;50.870;4.722;2022-11-15T10:16:22;3.93;;;1.27;;
14554;SDS011;7364;50.870;4.722;2022-11-15T10:19:10;4.87;;;1.97;;
14554;SDS011;7364;50.870;4.722;2022-11-15T10:21:49;5.00;;;2.00;;
14554;SDS011;7364;50.870;4.722;2022-11-15T10:24:27;5.30;;;1.60;;
14554;SDS011;7364;50.870;4.722;2022-11-15T10:26:58;8.60;;;1.97;;
14554;SDS011;7364;50.870;4.722;2022-11-15T10:29:26;3.83;;;1.50;;
14554;SDS011;7364;50.870;4.722;2022-11-15T10:31:55;3.63;;;1.53;;
14554;SDS011;7364;50.870;4.722;2022-11-15T10:34:23;5.87;;;2.60;;
14554;SDS011;7364;50.870;4.722;2022-11-15T10:36:54;4.93;;;1.47;;
14554;SDS011;7364;50.870;4.722;2022-11-15T10:39:22;4.77;;;1.73;;
14554;SDS011;7364;50.870;4.722;2022-11-15T10:41:50;1.90;;;1.20;;
14554;SDS011;7364;50.870;4.722;2022-11-15T10:44:22;4.07;;;1.57;;
14554;SDS011;7364;50.870;4.722;2022-11-15T10:47:16;5.53;;;2.20;;
14554;SDS011;7364;50.870;4.722;2022-11-15T10:50:04;6.10;;;2.10;;
14554;SDS011;7364;50.870;4.722;2022-11-15T10:52:34;3.47;;;1.70;;
14554;SDS011;7364;50.870;4.722;2022-11-15T10:55:05;2.20;;;1.27;;
14554;SDS011;7364;50.870;4.722;2022-11-15T10:57:49;5.20;;;1.33;;
14554;SDS011;7364;50.870;4.722;2022-11-15T11:00:29;5.07;;;1.70;;
14554;SDS011;7364;50.870;4.722;2022-11-15T11:03:02;5.70;;;2.00;;
14554;SDS011;7364;50.870;4.722;2022-11-15T11:05:33;3.33;;;1.77;;
14554;SDS011;7364;50.870;4.722;2022-11-15T11:08:04;3.03;;;1.60;;
14554;SDS011;7364;50.870;4.722;2022-11-15T11:10:46;3.10;;;1.37;;
14554;SDS011;7364;50.870;4.722;2022-11-15T11:13:22;7.33;;;2.10;;
14554;SDS011;7364;50.870;4.722;2022-11-15T11:15:52;6.27;;;1.90;;
14554;SDS011;7364;50.870;4.722;2022-11-15T11:18:34;6.07;;;2.30;;
14554;SDS011;7364;50.870;4.722;2022-11-15T11:21:07;3.87;;;1.63;;
14554;SDS011;7364;50.870;4.722;2022-11-15T11:23:44;6.50;;;2.47;;
14554;SDS011;7364;50.870;4.722;2022-11-15T11:26:31;5.57;;;2.40;;
14554;SDS011;7364;50.870;4.722;2022-11-15T11:29:08;6.07;;;2.20;;
14554;SDS011;7364;50.870;4.722;2022-11-15T11:31:47;3.50;;;1.73;;
14554;SDS011;7364;50.870;4.722;2022-11-15T11:34:25;3.87;;;1.60;;
14554;SDS011;7364;50.870;4.722;2022-11-15T11:37:03;3.53;;;1.40;;
14554;SDS011;7364;50.870;4.722;2022-11-15T11:39:41;3.20;;;1.33;;
14554;SDS011;7364;50.870;4.722;2022-11-15T11:42:25;3.03;;;1.40;;
14554;SDS011;7364;50.870;4.722;2022-11-15T11:45:05;2.30;;;1.13;;
14554;SDS011;7364;50.870;4.722;2022-11-15T11:47:44;6.00;;;1.30;;
14554;SDS011;7364;50.870;4.722;2022-11-15T11:50:17;4.70;;;1.80;;
14554;SDS011;7364;50.870;4.722;2022-11-15T11:52:51;4.40;;;1.23;;
14554;SDS011;7364;50.870;4.722;2022-11-15T11:55:24;7.60;;;1.47;;
14554;SDS011;7364;50.870;4.722;2022-11-15T11:57:58;2.40;;;1.20;;
14554;SDS011;7364;50.870;4.722;2022-11-15T12:00:33;3.87;;;1.27;;
14554;SDS011;7364;50.870;4.722;2022-11-15T12:03:08;6.07;;;1.50;;
14554;SDS011;7364;50.870;4.722;2022-11-15T12:05:41;1.70;;;0.90;;
14554;SDS011;7364;50.870;4.722;2022-11-15T12:08:18;5.83;;;1.40;;
14554;SDS011;7364;50.870;4.722;2022-11-15T12:10:56;2.43;;;1.20;;
14554;SDS011;7364;50.870;4.722;2022-11-15T12:13:30;2.50;;;1.23;;
14554;SDS011;7364;50.870;4.722;2022-11-15T12:16:03;2.17;;;1.13;;
14554;SDS011;7364;50.870;4.722;2022-11-15T12:18:37;4.73;;;1.10;;
14554;SDS011;7364;50.870;4.722;2022-11-15T12:21:06;4.03;;;1.23;;
14554;SDS011;7364;50.870;4.722;2022-11-15T12:23:44;3.90;;;1.43;;
14554;SDS011;7364;50.870;4.722;2022-11-15T12:26:16;5.70;;;1.70;;
14554;SDS011;7364;50.870;4.722;2022-11-15T12:28:47;6.10;;;1.63;;
14554;SDS011;7364;50.870;4.722;2022-11-15T12:31:20;3.60;;;1.43;;
14554;SDS011;7364;50.870;4.722;2022-11-15T12:33:51;3.10;;;1.20;;
14554;SDS011;7364;50.870;4.722;2022-11-15T12:36:35;5.07;;;1.77;;
14554;SDS011;7364;50.870;4.722;2022-11-15T12:39:06;4.37;;;1.30;;
14554;SDS011;7364;50.870;4.722;2022-11-15T12:41:35;4.97;;;1.80;;
14554;SDS011;7364;50.870;4.722;2022-11-15T12:44:03;2.00;;;1.13;;
14554;SDS011;7364;50.870;4.722;2022-11-15T12:49:44;6.10;;;1.87;;
14554;SDS011;7364;50.870;4.722;2022-11-15T12:52:14;2.73;;;1.40;;
14554;SDS011;7364;50.870;4.722;2022-11-15T12:57:58;5.33;;;1.43;;
14554;SDS011;7364;50.870;4.722;2022-11-15T13:00:54;2.13;;;1.20;;
14554;SDS011;7364;50.870;4.722;2022-11-15T13:03:23;6.00;;;1.73;;
14554;SDS011;7364;50.870;4.722;2022-11-15T13:08:58;2.20;;;1.20;;
14554;SDS011;7364;50.870;4.722;2022-11-15T13:11:45;2.57;;;1.30;;
14554;SDS011;7364;50.870;4.722;2022-11-15T13:17:21;5.00;;;1.80;;
14554;SDS011;7364;50.870;4.722;2022-11-15T13:19:53;4.70;;;1.70;;
14554;SDS011;7364;50.870;4.722;2022-11-15T13:22:25;2.57;;;1.33;;
14554;SDS011;7364;50.870;4.722;2022-11-15T13:25:19;4.23;;;1.60;;
14554;SDS011;7364;50.870;4.722;2022-11-15T13:27:57;1.70;;;1.10;;
14554;SDS011;7364;50.870;4.722;2022-11-15T13:30:26;3.33;;;1.63;;
14554;SDS011;7364;50.870;4.722;2022-11-15T13:32:55;2.70;;;1.30;;
14554;SDS011;7364;50.870;4.722;2022-11-15T13:35:26;2.70;;;1.53;;
14554;SDS011;7364;50.870;4.722;2022-11-15T13:37:57;4.40;;;1.40;;
14554;SDS011;7364;50.870;4.722;2022-11-15T13:40:35;3.10;;;1.30;;
14554;SDS011;7364;50.870;4.722;2022-11-15T13:43:15;2.30;;;1.20;;
14554;SDS011;7364;50.870;4.722;2022-11-15T13:46:03;2.00;;;1.37;;
14554;SDS011;7364;50.870;4.722;2022-11-15T13:48:32;3.70;;;1.60;;
14554;SDS011;7364;50.870;4.722;2022-11-15T13:51:00;5.50;;;1.43;;
14554;SDS011;7364;50.870;4.722;2022-11-15T13:53:30;3.00;;;1.30;;
14554;SDS011;7364;50.870;4.722;2022-11-15T13:56:00;4.97;;;1.60;;
14554;SDS011;7364;50.870;4.722;2022-11-15T13:58:29;3.33;;;2.10;;
14554;SDS011;7364;50.870;4.722;2022-11-15T14:00:59;4.47;;;1.80;;
14554;SDS011;7364;50.870;4.722;2022-11-15T14:03:28;3.50;;;1.47;;
14554;SDS011;7364;50.870;4.722;2022-11-15T14:06:03;1.23;;;1.07;;
14554;SDS011;7364;50.870;4.722;2022-11-15T14:08:33;3.03;;;1.17;;
14554;SDS011;7364;50.870;4.722;2022-11-15T14:11:11;1.77;;;0.97;;
14554;SDS011;7364;50.870;4.722;2022-11-15T14:13:42;3.47;;;1.50;;
14554;SDS011;7364;50.870;4.722;2022-11-15T14:16:33;3.13;;;1.20;;
14554;SDS011;7364;50.870;4.722;2022-11-15T14:19:02;3.27;;;1.37;;
14554;SDS011;7364;50.870;4.722;2022-11-15T14:21:30;4.67;;;1.30;;
14554;SDS011;7364;50.870;4.722;2022-11-15T14:26:42;2.83;;;1.30;;
14554;SDS011;7364;50.870;4.722;2022-11-15T14:29:22;2.30;;;1.30;;
14554;SDS011;7364;50.870;4.722;2022-11-15T14:31:50;2.47;;;1.10;;
14554;SDS011;7364;50.870;4.722;2022-11-15T14:34:18;6.13;;;1.87;;
14554;SDS011;7364;50.870;4.722;2022-11-15T14:36:46;3.30;;;1.50;;
14554;SDS011;7364;50.870;4.722;2022-11-15T14:39:14;1.73;;;1.47;;
14554;SDS011;7364;50.870;4.722;2022-11-15T14:41:44;4.27;;;1.60;;
14554;SDS011;7364;50.870;4.722;2022-11-15T14:44:11;2.37;;;1.30;;
14554;SDS011;7364;50.870;4.722;2022-11-15T14:46:44;1.77;;;1.10;;
14554;SDS011;7364;50.870;4.722;2022-11-15T14:49:11;3.93;;;1.37;;
14554;SDS011;7364;50.870;4.722;2022-11-15T14:51:40;2.80;;;1.60;;
14554;SDS011;7364;50.870;4.722;2022-11-15T14:54:08;2.43;;;1.50;;
14554;SDS011;7364;50.870;4.722;2022-11-15T14:56:36;2.47;;;1.70;;
14554;SDS011;7364;50.870;4.722;2022-11-15T14:59:05;3.80;;;1.60;;
14554;SDS011;7364;50.870;4.722;2022-11-15T15:01:33;7.33;;;1.60;;
14554;SDS011;7364;50.870;4.722;2022-11-15T15:04:00;3.27;;;1.70;;
14554;SDS011;7364;50.870;4.722;2022-11-15T15:06:27;3.80;;;1.80;;
14554;SDS011;7364;50.870;4.722;2022-11-15T15:08:55;2.50;;;1.40;;
14554;SDS011;7364;50.870;4.722;2022-11-15T15:11:23;5.37;;;1.87;;
14554;SDS011;7364;50.870;4.722;2022-11-15T15:13:52;4.90;;;1.77;;
14554;SDS011;7364;50.870;4.722;2022-11-15T15:16:23;5.97;;;2.17;;
14554;SDS011;7364;50.870;4.722;2022-11-15T15:18:50;7.73;;;3.40;;
14554;SDS011;7364;50.870;4.722;2022-11-15T15:21:19;3.77;;;2.10;;
14554;SDS011;7364;50.870;4.722;2022-11-15T15:23:48;4.43;;;1.93;;
14554;SDS011;7364;50.870;4.722;2022-11-15T15:26:16;4.30;;;2.13;;
14554;SDS011;7364;50.870;4.722;2022-11-15T15:28:45;4.27;;;1.90;;
14554;SDS011;7364;50.870;4.722;2022-11-15T15:31:14;2.33;;;1.33;;
14554;SDS011;7364;50.870;4.722;2022-11-15T15:33:42;2.97;;;1.80;;
14554;SDS011;7364;50.870;4.722;2022-11-15T15:36:10;3.07;;;1.73;;
14554;SDS011;7364;50.870;4.722;2022-11-15T15:38:39;4.60;;;2.63;;
14554;SDS011;7364;50.870;4.722;2022-11-15T15:41:08;4.10;;;2.40;;
14554;SDS011;7364;50.870;4.722;2022-11-15T15:43:37;3.23;;;2.30;;
14554;SDS011;7364;50.870;4.722;2022-11-15T15:46:04;3.73;;;2.60;;